sensor_id;sensor_type;location;lat;lon;timestamp;P1;durP1;ratioP1;P2;durP2;ratioP2
14686;SDS011;7431;49.440;11.084;2024-03-22T00:01:47;17.50;;;9.93;;
14686;SDS011;7431;49.440;11.084;2024-03-22T00:04:14;17.03;;;10.37;;
14686;SDS011;7431;49.440;11.084;2024-03-22T00:06:41;17.77;;;11.60;;
14686;SDS011;7431;49.440;11.084;2024-03-22T00:09:07;17.17;;;10.27;;
14686;SDS011;7431;49.440;11.084;2024-03-22T00:11:33;13.80;;;9.97;;
14686;SDS011;7431;49.440;11.084;2024-03-22T00:13:59;15.03;;;10.17;;
14686;SDS011;7431;49.440;11.084;2024-03-22T00:16:25;16.97;;;11.07;;
14686;SDS011;7431;49.440;11.084;2024-03-22T00:18:51;16.57;;;11.13;;
14686;SDS011;7431;49.440;11.084;2024-03-22T00:21:17;13.93;;;10.00;;
14686;SDS011;7431;49.440;11.084;2024-03-22T00:23:43;13.37;;;9.40;;
14686;SDS011;7431;49.440;11.084;2024-03-22T00:26:09;15.13;;;9.33;;
14686;SDS011;7431;49.440;11.084;2024-03-22T00:28:35;15.10;;;10.00;;
14686;SDS011;7431;49.440;11.084;2024-03-22T00:31:01;12.83;;;8.73;;
14686;SDS011;7431;49.440;11.084;2024-03-22T00:33:27;13.33;;;9.50;;
14686;SDS011;7431;49.440;11.084;2024-03-22T00:35:53;15.47;;;10.27;;
14686;SDS011;7431;49.440;11.084;2024-03-22T00:38:19;16.27;;;9.93;;
14686;SDS011;7431;49.440;11.084;2024-03-22T00:40:45;16.17;;;10.77;;
14686;SDS011;7431;49.440;11.084;2024-03-22T00:43:11;16.17;;;10.30;;
14686;SDS011;7431;49.440;11.084;2024-03-22T00:45:37;15.30;;;10.50;;
14686;SDS011;7431;49.440;11.084;2024-03-22T00:48:03;14.30;;;9.20;;
14686;SDS011;7431;49.440;11.084;2024-03-22T00:50:29;14.20;;;8.90;;
14686;SDS011;7431;49.440;11.084;2024-03-22T00:52:55;15.37;;;9.57;;
14686;SDS011;7431;49.440;11.084;2024-03-22T00:55:21;16.07;;;9.13;;
14686;SDS011;7431;49.440;11.084;2024-03-22T00:57:47;15.37;;;9.50;;
14686;SDS011;7431;49.440;11.084;2024-03-22T01:00:13;15.40;;;10.10;;
14686;SDS011;7431;49.440;11.084;2024-03-22T01:02:40;12.07;;;8.73;;
14686;SDS011;7431;49.440;11.084;2024-03-22T01:05:06;11.23;;;7.70;;
14686;SDS011;7431;49.440;11.084;2024-03-22T01:07:32;12.63;;;8.80;;
14686;SDS011;7431;49.440;11.084;2024-03-22T01:09:58;12.23;;;8.87;;
14686;SDS011;7431;49.440;11.084;2024-03-22T01:12:25;12.27;;;8.27;;
14686;SDS011;7431;49.440;11.084;2024-03-22T01:14:51;13.47;;;8.80;;
14686;SDS011;7431;49.440;11.084;2024-03-22T01:17:17;13.43;;;8.40;;
14686;SDS011;7431;49.440;11.084;2024-03-22T01:19:43;13.47;;;8.77;;
14686;SDS011;7431;49.440;11.084;2024-03-22T01:22:09;12.40;;;8.80;;
14686;SDS011;7431;49.440;11.084;2024-03-22T01:24:35;17.47;;;9.30;;
14686;SDS011;7431;49.440;11.084;2024-03-22T01:27:01;13.67;;;9.17;;
14686;SDS011;7431;49.440;11.084;2024-03-22T01:29:27;14.27;;;9.57;;
14686;SDS011;7431;49.440;11.084;2024-03-22T01:31:56;12.47;;;8.63;;
14686;SDS011;7431;49.440;11.084;2024-03-22T01:34:22;14.70;;;8.47;;
14686;SDS011;7431;49.440;11.084;2024-03-22T01:36:48;12.83;;;8.70;;
14686;SDS011;7431;49.440;11.084;2024-03-22T01:39:14;14.33;;;8.07;;
14686;SDS011;7431;49.440;11.084;2024-03-22T01:41:40;12.67;;;8.67;;
14686;SDS011;7431;49.440;11.084;2024-03-22T01:44:06;13.63;;;9.27;;
14686;SDS011;7431;49.440;11.084;2024-03-22T01:46:32;11.97;;;7.63;;
14686;SDS011;7431;49.440;11.084;2024-03-22T01:48:58;10.07;;;8.20;;
14686;SDS011;7431;49.440;11.084;2024-03-22T01:51:24;12.83;;;8.73;;
14686;SDS011;7431;49.440;11.084;2024-03-22T01:53:50;12.73;;;8.03;;
14686;SDS011;7431;49.440;11.084;2024-03-22T01:56:17;13.87;;;8.70;;
14686;SDS011;7431;49.440;11.084;2024-03-22T01:58:43;12.70;;;8.57;;
14686;SDS011;7431;49.440;11.084;2024-03-22T02:01:10;12.13;;;8.17;;
14686;SDS011;7431;49.440;11.084;2024-03-22T02:03:35;14.23;;;9.33;;
14686;SDS011;7431;49.440;11.084;2024-03-22T02:06:01;15.43;;;9.40;;
14686;SDS011;7431;49.440;11.084;2024-03-22T02:08:28;14.83;;;9.90;;
14686;SDS011;7431;49.440;11.084;2024-03-22T02:10:54;14.17;;;8.87;;
14686;SDS011;7431;49.440;11.084;2024-03-22T02:13:20;15.17;;;9.50;;
14686;SDS011;7431;49.440;11.084;2024-03-22T02:15:46;14.53;;;9.67;;
14686;SDS011;7431;49.440;11.084;2024-03-22T02:18:12;12.30;;;9.00;;
14686;SDS011;7431;49.440;11.084;2024-03-22T02:20:37;12.90;;;9.00;;
14686;SDS011;7431;49.440;11.084;2024-03-22T02:23:03;11.83;;;8.87;;
14686;SDS011;7431;49.440;11.084;2024-03-22T02:25:29;11.30;;;7.97;;
14686;SDS011;7431;49.440;11.084;2024-03-22T02:27:55;12.10;;;8.10;;
14686;SDS011;7431;49.440;11.084;2024-03-22T02:30:21;12.83;;;7.93;;
14686;SDS011;7431;49.440;11.084;2024-03-22T02:32:47;13.83;;;8.50;;
14686;SDS011;7431;49.440;11.084;2024-03-22T02:35:13;11.20;;;7.90;;
14686;SDS011;7431;49.440;11.084;2024-03-22T02:37:39;12.63;;;8.13;;
14686;SDS011;7431;49.440;11.084;2024-03-22T02:40:05;10.47;;;8.17;;
14686;SDS011;7431;49.440;11.084;2024-03-22T02:42:32;9.97;;;7.43;;
14686;SDS011;7431;49.440;11.084;2024-03-22T02:44:58;9.80;;;7.33;;
14686;SDS011;7431;49.440;11.084;2024-03-22T02:47:23;14.37;;;8.87;;
14686;SDS011;7431;49.440;11.084;2024-03-22T02:49:49;13.10;;;7.97;;
14686;SDS011;7431;49.440;11.084;2024-03-22T02:52:15;11.47;;;7.67;;
14686;SDS011;7431;49.440;11.084;2024-03-22T02:54:41;11.67;;;8.03;;
14686;SDS011;7431;49.440;11.084;2024-03-22T02:57:07;12.00;;;8.03;;
14686;SDS011;7431;49.440;11.084;2024-03-22T02:59:33;10.47;;;7.43;;
14686;SDS011;7431;49.440;11.084;2024-03-22T03:01:59;13.50;;;8.67;;
14686;SDS011;7431;49.440;11.084;2024-03-22T03:04:25;10.47;;;7.53;;
14686;SDS011;7431;49.440;11.084;2024-03-22T03:06:51;10.60;;;7.50;;
14686;SDS011;7431;49.440;11.084;2024-03-22T03:09:17;11.10;;;7.17;;
14686;SDS011;7431;49.440;11.084;2024-03-22T03:11:43;11.30;;;8.20;;
14686;SDS011;7431;49.440;11.084;2024-03-22T03:14:09;13.30;;;8.77;;
14686;SDS011;7431;49.440;11.084;2024-03-22T03:16:35;11.63;;;7.33;;
14686;SDS011;7431;49.440;11.084;2024-03-22T03:19:01;14.50;;;8.33;;
14686;SDS011;7431;49.440;11.084;2024-03-22T03:21:27;11.90;;;8.13;;
14686;SDS011;7431;49.440;11.084;2024-03-22T03:23:53;10.83;;;7.37;;
14686;SDS011;7431;49.440;11.084;2024-03-22T03:26:19;11.00;;;7.97;;
14686;SDS011;7431;49.440;11.084;2024-03-22T03:28:45;11.43;;;8.03;;
14686;SDS011;7431;49.440;11.084;2024-03-22T03:31:11;12.53;;;8.00;;
14686;SDS011;7431;49.440;11.084;2024-03-22T03:33:37;11.83;;;8.87;;
14686;SDS011;7431;49.440;11.084;2024-03-22T03:36:03;14.17;;;9.03;;
14686;SDS011;7431;49.440;11.084;2024-03-22T03:38:29;12.63;;;8.37;;
14686;SDS011;7431;49.440;11.084;2024-03-22T03:40:55;12.90;;;8.13;;
14686;SDS011;7431;49.440;11.084;2024-03-22T03:43:21;16.17;;;9.00;;
14686;SDS011;7431;49.440;11.084;2024-03-22T03:45:46;13.30;;;8.20;;
14686;SDS011;7431;49.440;11.084;2024-03-22T03:48:12;16.37;;;9.57;;
14686;SDS011;7431;49.440;11.084;2024-03-22T03:50:38;18.03;;;9.30;;
14686;SDS011;7431;49.440;11.084;2024-03-22T03:53:04;13.67;;;9.13;;
14686;SDS011;7431;49.440;11.084;2024-03-22T03:55:30;15.57;;;9.07;;
14686;SDS011;7431;49.440;11.084;2024-03-22T03:57:57;13.10;;;8.83;;
14686;SDS011;7431;49.440;11.084;2024-03-22T04:00:23;14.27;;;8.80;;
14686;SDS011;7431;49.440;11.084;2024-03-22T04:02:49;13.47;;;9.20;;
14686;SDS011;7431;49.440;11.084;2024-03-22T04:05:15;12.87;;;9.00;;
14686;SDS011;7431;49.440;11.084;2024-03-22T04:07:41;15.60;;;9.33;;
14686;SDS011;7431;49.440;11.084;2024-03-22T04:10:08;14.00;;;8.47;;
14686;SDS011;7431;49.440;11.084;2024-03-22T04:12:34;11.27;;;8.10;;
14686;SDS011;7431;49.440;11.084;2024-03-22T04:15:00;15.47;;;9.30;;
14686;SDS011;7431;49.440;11.084;2024-03-22T04:17:26;15.27;;;8.07;;
14686;SDS011;7431;49.440;11.084;2024-03-22T04:19:52;14.27;;;8.77;;
14686;SDS011;7431;49.440;11.084;2024-03-22T04:22:18;13.83;;;8.93;;
14686;SDS011;7431;49.440;11.084;2024-03-22T04:24:44;15.43;;;9.90;;
14686;SDS011;7431;49.440;11.084;2024-03-22T04:27:10;14.60;;;9.03;;
14686;SDS011;7431;49.440;11.084;2024-03-22T04:29:36;13.73;;;8.57;;
14686;SDS011;7431;49.440;11.084;2024-03-22T04:32:02;14.67;;;9.00;;
14686;SDS011;7431;49.440;11.084;2024-03-22T04:34:28;16.30;;;9.93;;
14686;SDS011;7431;49.440;11.084;2024-03-22T04:36:54;14.30;;;8.20;;
14686;SDS011;7431;49.440;11.084;2024-03-22T04:39:20;16.40;;;9.27;;
14686;SDS011;7431;49.440;11.084;2024-03-22T04:41:46;16.87;;;10.23;;
14686;SDS011;7431;49.440;11.084;2024-03-22T04:44:12;15.63;;;9.50;;
14686;SDS011;7431;49.440;11.084;2024-03-22T04:46:38;12.87;;;8.37;;
14686;SDS011;7431;49.440;11.084;2024-03-22T04:49:04;17.90;;;9.90;;
14686;SDS011;7431;49.440;11.084;2024-03-22T04:51:29;18.47;;;9.47;;
14686;SDS011;7431;49.440;11.084;2024-03-22T04:56:24;14.00;;;9.73;;
14686;SDS011;7431;49.440;11.084;2024-03-22T04:58:50;17.23;;;9.60;;
14686;SDS011;7431;49.440;11.084;2024-03-22T05:01:16;15.17;;;8.37;;
14686;SDS011;7431;49.440;11.084;2024-03-22T05:03:42;16.73;;;8.87;;
14686;SDS011;7431;49.440;11.084;2024-03-22T05:06:08;13.70;;;8.47;;
14686;SDS011;7431;49.440;11.084;2024-03-22T05:08:34;15.33;;;9.37;;
14686;SDS011;7431;49.440;11.084;2024-03-22T05:11:00;16.63;;;9.93;;
14686;SDS011;7431;49.440;11.084;2024-03-22T05:13:26;14.77;;;9.33;;
14686;SDS011;7431;49.440;11.084;2024-03-22T05:15:52;15.57;;;9.80;;
14686;SDS011;7431;49.440;11.084;2024-03-22T05:18:18;16.37;;;10.13;;
14686;SDS011;7431;49.440;11.084;2024-03-22T05:20:44;15.83;;;9.77;;
14686;SDS011;7431;49.440;11.084;2024-03-22T05:23:10;14.63;;;9.50;;
14686;SDS011;7431;49.440;11.084;2024-03-22T05:25:36;19.13;;;10.00;;
14686;SDS011;7431;49.440;11.084;2024-03-22T05:28:02;12.53;;;8.87;;
14686;SDS011;7431;49.440;11.084;2024-03-22T05:30:28;18.70;;;9.73;;
14686;SDS011;7431;49.440;11.084;2024-03-22T05:32:54;16.77;;;9.60;;
14686;SDS011;7431;49.440;11.084;2024-03-22T05:35:20;15.97;;;9.13;;
14686;SDS011;7431;49.440;11.084;2024-03-22T05:37:46;13.47;;;9.37;;
14686;SDS011;7431;49.440;11.084;2024-03-22T05:40:13;14.87;;;8.47;;
14686;SDS011;7431;49.440;11.084;2024-03-22T05:42:39;15.43;;;9.80;;
14686;SDS011;7431;49.440;11.084;2024-03-22T05:45:05;16.47;;;9.67;;
14686;SDS011;7431;49.440;11.084;2024-03-22T05:47:31;16.17;;;9.40;;
14686;SDS011;7431;49.440;11.084;2024-03-22T05:49:58;11.30;;;8.47;;
14686;SDS011;7431;49.440;11.084;2024-03-22T05:52:24;14.67;;;9.07;;
14686;SDS011;7431;49.440;11.084;2024-03-22T05:54:50;13.83;;;8.60;;
14686;SDS011;7431;49.440;11.084;2024-03-22T05:57:16;15.20;;;8.90;;
14686;SDS011;7431;49.440;11.084;2024-03-22T05:59:42;12.63;;;8.47;;
14686;SDS011;7431;49.440;11.084;2024-03-22T06:02:08;15.17;;;8.43;;
14686;SDS011;7431;49.440;11.084;2024-03-22T06:04:34;15.40;;;8.30;;
14686;SDS011;7431;49.440;11.084;2024-03-22T06:07:01;14.83;;;8.87;;
14686;SDS011;7431;49.440;11.084;2024-03-22T06:09:29;17.10;;;8.77;;
14686;SDS011;7431;49.440;11.084;2024-03-22T06:12:21;14.10;;;8.43;;
14686;SDS011;7431;49.440;11.084;2024-03-22T06:14:47;13.87;;;8.67;;
14686;SDS011;7431;49.440;11.084;2024-03-22T06:17:13;13.03;;;8.53;;
14686;SDS011;7431;49.440;11.084;2024-03-22T06:19:40;13.40;;;8.40;;
14686;SDS011;7431;49.440;11.084;2024-03-22T06:22:06;11.53;;;8.30;;
14686;SDS011;7431;49.440;11.084;2024-03-22T06:24:32;12.77;;;8.63;;
14686;SDS011;7431;49.440;11.084;2024-03-22T06:26:58;12.43;;;8.90;;
14686;SDS011;7431;49.440;11.084;2024-03-22T06:29:25;13.70;;;8.50;;
14686;SDS011;7431;49.440;11.084;2024-03-22T06:31:51;12.83;;;8.63;;
14686;SDS011;7431;49.440;11.084;2024-03-22T06:34:17;12.40;;;7.70;;
14686;SDS011;7431;49.440;11.084;2024-03-22T06:36:47;13.77;;;7.70;;
14686;SDS011;7431;49.440;11.084;2024-03-22T06:39:13;10.37;;;7.23;;
14686;SDS011;7431;49.440;11.084;2024-03-22T06:41:41;11.02;;;6.97;;
14686;SDS011;7431;49.440;11.084;2024-03-22T06:44:07;9.25;;;6.65;;
14686;SDS011;7431;49.440;11.084;2024-03-22T06:46:37;10.07;;;7.17;;
14686;SDS011;7431;49.440;11.084;2024-03-22T06:49:03;8.73;;;6.83;;
14686;SDS011;7431;49.440;11.084;2024-03-22T06:51:29;10.97;;;7.40;;
14686;SDS011;7431;49.440;11.084;2024-03-22T06:53:55;11.57;;;7.60;;
14686;SDS011;7431;49.440;11.084;2024-03-22T06:56:21;12.83;;;7.63;;
14686;SDS011;7431;49.440;11.084;2024-03-22T06:58:47;12.47;;;7.77;;
14686;SDS011;7431;49.440;11.084;2024-03-22T07:01:13;10.73;;;8.27;;
14686;SDS011;7431;49.440;11.084;2024-03-22T07:03:39;11.30;;;7.57;;
14686;SDS011;7431;49.440;11.084;2024-03-22T07:06:05;10.43;;;7.53;;
14686;SDS011;7431;49.440;11.084;2024-03-22T07:08:33;11.37;;;7.63;;
14686;SDS011;7431;49.440;11.084;2024-03-22T07:10:59;11.67;;;7.73;;
14686;SDS011;7431;49.440;11.084;2024-03-22T07:13:25;14.00;;;8.23;;
14686;SDS011;7431;49.440;11.084;2024-03-22T07:15:51;12.17;;;8.13;;
14686;SDS011;7431;49.440;11.084;2024-03-22T07:18:17;10.90;;;7.93;;
14686;SDS011;7431;49.440;11.084;2024-03-22T07:20:44;12.10;;;8.20;;
14686;SDS011;7431;49.440;11.084;2024-03-22T07:23:11;13.67;;;7.70;;
14686;SDS011;7431;49.440;11.084;2024-03-22T07:25:37;12.20;;;8.13;;
14686;SDS011;7431;49.440;11.084;2024-03-22T07:28:03;11.97;;;7.53;;
14686;SDS011;7431;49.440;11.084;2024-03-22T07:30:29;9.93;;;7.50;;
14686;SDS011;7431;49.440;11.084;2024-03-22T07:32:55;10.77;;;7.70;;
14686;SDS011;7431;49.440;11.084;2024-03-22T07:35:21;10.53;;;7.80;;
14686;SDS011;7431;49.440;11.084;2024-03-22T07:37:47;10.03;;;7.10;;
14686;SDS011;7431;49.440;11.084;2024-03-22T07:40:15;12.90;;;8.03;;
14686;SDS011;7431;49.440;11.084;2024-03-22T07:42:41;12.80;;;8.07;;
14686;SDS011;7431;49.440;11.084;2024-03-22T07:45:07;11.37;;;8.23;;
14686;SDS011;7431;49.440;11.084;2024-03-22T07:47:33;11.57;;;7.40;;
14686;SDS011;7431;49.440;11.084;2024-03-22T07:49:59;11.80;;;7.47;;
14686;SDS011;7431;49.440;11.084;2024-03-22T07:52:25;12.43;;;7.80;;
14686;SDS011;7431;49.440;11.084;2024-03-22T07:54:51;13.33;;;7.43;;
14686;SDS011;7431;49.440;11.084;2024-03-22T07:57:17;11.67;;;7.60;;
14686;SDS011;7431;49.440;11.084;2024-03-22T07:59:43;11.80;;;7.97;;
14686;SDS011;7431;49.440;11.084;2024-03-22T08:02:10;12.20;;;8.17;;
14686;SDS011;7431;49.440;11.084;2024-03-22T08:04:36;10.13;;;8.23;;
14686;SDS011;7431;49.440;11.084;2024-03-22T08:07:02;10.90;;;7.67;;
14686;SDS011;7431;49.440;11.084;2024-03-22T08:09:28;13.90;;;8.43;;
14686;SDS011;7431;49.440;11.084;2024-03-22T08:11:54;12.63;;;7.30;;
14686;SDS011;7431;49.440;11.084;2024-03-22T08:14:19;11.13;;;7.63;;
14686;SDS011;7431;49.440;11.084;2024-03-22T08:16:45;10.37;;;7.03;;
14686;SDS011;7431;49.440;11.084;2024-03-22T08:19:11;10.43;;;7.37;;
14686;SDS011;7431;49.440;11.084;2024-03-22T08:21:38;11.20;;;7.67;;
14686;SDS011;7431;49.440;11.084;2024-03-22T08:24:04;12.03;;;7.47;;
14686;SDS011;7431;49.440;11.084;2024-03-22T08:26:30;9.77;;;7.70;;
14686;SDS011;7431;49.440;11.084;2024-03-22T08:28:56;9.90;;;7.63;;
14686;SDS011;7431;49.440;11.084;2024-03-22T08:31:22;11.00;;;7.30;;
14686;SDS011;7431;49.440;11.084;2024-03-22T08:33:51;8.93;;;6.63;;
14686;SDS011;7431;49.440;11.084;2024-03-22T08:36:17;8.20;;;7.27;;
14686;SDS011;7431;49.440;11.084;2024-03-22T08:38:43;10.60;;;7.80;;
14686;SDS011;7431;49.440;11.084;2024-03-22T08:41:09;12.07;;;7.53;;
14686;SDS011;7431;49.440;11.084;2024-03-22T08:43:35;8.75;;;6.63;;
14686;SDS011;7431;49.440;11.084;2024-03-22T08:46:01;9.55;;;7.25;;
14686;SDS011;7431;49.440;11.084;2024-03-22T08:48:28;9.55;;;7.20;;
14686;SDS011;7431;49.440;11.084;2024-03-22T08:50:54;11.45;;;8.00;;
14686;SDS011;7431;49.440;11.084;2024-03-22T08:53:20;10.65;;;7.82;;
14686;SDS011;7431;49.440;11.084;2024-03-22T08:55:46;9.65;;;8.15;;
14686;SDS011;7431;49.440;11.084;2024-03-22T08:58:13;9.32;;;7.03;;
14686;SDS011;7431;49.440;11.084;2024-03-22T09:00:40;12.13;;;7.22;;
14686;SDS011;7431;49.440;11.084;2024-03-22T09:03:07;10.77;;;7.15;;
14686;SDS011;7431;49.440;11.084;2024-03-22T09:05:32;9.48;;;6.60;;
14686;SDS011;7431;49.440;11.084;2024-03-22T09:07:59;12.27;;;7.90;;
14686;SDS011;7431;49.440;11.084;2024-03-22T09:10:25;10.93;;;8.23;;
14686;SDS011;7431;49.440;11.084;2024-03-22T09:12:51;7.82;;;6.22;;
14686;SDS011;7431;49.440;11.084;2024-03-22T09:15:17;10.80;;;7.97;;
14686;SDS011;7431;49.440;11.084;2024-03-22T09:17:43;8.82;;;7.05;;
14686;SDS011;7431;49.440;11.084;2024-03-22T09:20:09;10.75;;;7.38;;
14686;SDS011;7431;49.440;11.084;2024-03-22T09:22:35;9.93;;;7.22;;
14686;SDS011;7431;49.440;11.084;2024-03-22T09:25:03;9.63;;;7.38;;
14686;SDS011;7431;49.440;11.084;2024-03-22T09:27:30;11.45;;;7.90;;
14686;SDS011;7431;49.440;11.084;2024-03-22T09:29:55;11.18;;;7.63;;
14686;SDS011;7431;49.440;11.084;2024-03-22T09:32:21;9.20;;;7.45;;
14686;SDS011;7431;49.440;11.084;2024-03-22T09:34:51;12.23;;;6.97;;
14686;SDS011;7431;49.440;11.084;2024-03-22T09:37:16;11.50;;;7.20;;
14686;SDS011;7431;49.440;11.084;2024-03-22T09:39:43;12.15;;;7.60;;
14686;SDS011;7431;49.440;11.084;2024-03-22T09:42:09;11.00;;;7.45;;
14686;SDS011;7431;49.440;11.084;2024-03-22T09:44:37;11.38;;;7.63;;
14686;SDS011;7431;49.440;11.084;2024-03-22T09:47:05;10.40;;;7.55;;
14686;SDS011;7431;49.440;11.084;2024-03-22T09:49:31;10.32;;;7.18;;
14686;SDS011;7431;49.440;11.084;2024-03-22T09:51:57;11.57;;;7.63;;
14686;SDS011;7431;49.440;11.084;2024-03-22T09:54:23;10.05;;;6.88;;
14686;SDS011;7431;49.440;11.084;2024-03-22T09:56:50;8.55;;;7.07;;
14686;SDS011;7431;49.440;11.084;2024-03-22T09:59:17;8.40;;;6.55;;
14686;SDS011;7431;49.440;11.084;2024-03-22T10:01:43;9.82;;;7.07;;
14686;SDS011;7431;49.440;11.084;2024-03-22T10:04:10;10.05;;;7.10;;
14686;SDS011;7431;49.440;11.084;2024-03-22T10:06:36;10.93;;;7.90;;
14686;SDS011;7431;49.440;11.084;2024-03-22T10:09:02;9.48;;;6.95;;
14686;SDS011;7431;49.440;11.084;2024-03-22T10:11:29;8.63;;;7.10;;
14686;SDS011;7431;49.440;11.084;2024-03-22T10:13:55;9.35;;;7.40;;
14686;SDS011;7431;49.440;11.084;2024-03-22T10:16:21;9.10;;;6.63;;
14686;SDS011;7431;49.440;11.084;2024-03-22T10:18:48;10.20;;;7.25;;
14686;SDS011;7431;49.440;11.084;2024-03-22T10:21:16;9.43;;;6.80;;
14686;SDS011;7431;49.440;11.084;2024-03-22T10:23:46;8.70;;;6.60;;
14686;SDS011;7431;49.440;11.084;2024-03-22T10:26:13;9.40;;;6.90;;
14686;SDS011;7431;49.440;11.084;2024-03-22T10:28:45;8.00;;;6.50;;
14686;SDS011;7431;49.440;11.084;2024-03-22T10:31:12;9.73;;;7.47;;
14686;SDS011;7431;49.440;11.084;2024-03-22T10:33:40;9.80;;;7.13;;
14686;SDS011;7431;49.440;11.084;2024-03-22T10:36:06;11.27;;;6.90;;
14686;SDS011;7431;49.440;11.084;2024-03-22T10:38:33;9.20;;;6.72;;
14686;SDS011;7431;49.440;11.084;2024-03-22T10:41:02;7.15;;;5.97;;
14686;SDS011;7431;49.440;11.084;2024-03-22T10:43:28;8.40;;;6.05;;
14686;SDS011;7431;49.440;11.084;2024-03-22T10:45:55;8.60;;;6.00;;
14686;SDS011;7431;49.440;11.084;2024-03-22T10:48:22;9.13;;;5.93;;
14686;SDS011;7431;49.440;11.084;2024-03-22T10:50:50;6.88;;;5.15;;
14686;SDS011;7431;49.440;11.084;2024-03-22T10:53:20;6.53;;;5.32;;
14686;SDS011;7431;49.440;11.084;2024-03-22T10:55:52;11.00;;;6.30;;
14686;SDS011;7431;49.440;11.084;2024-03-22T10:58:22;8.57;;;5.47;;
14686;SDS011;7431;49.440;11.084;2024-03-22T11:00:51;5.05;;;4.22;;
14686;SDS011;7431;49.440;11.084;2024-03-22T11:03:19;6.50;;;4.90;;
14686;SDS011;7431;49.440;11.084;2024-03-22T11:05:46;6.32;;;4.68;;
14686;SDS011;7431;49.440;11.084;2024-03-22T11:08:12;5.97;;;4.22;;
14686;SDS011;7431;49.440;11.084;2024-03-22T11:10:38;6.40;;;4.28;;
14686;SDS011;7431;49.440;11.084;2024-03-22T11:13:05;7.68;;;4.50;;
14686;SDS011;7431;49.440;11.084;2024-03-22T11:15:34;4.30;;;3.90;;
14686;SDS011;7431;49.440;11.084;2024-03-22T11:18:00;5.43;;;3.72;;
14686;SDS011;7431;49.440;11.084;2024-03-22T11:20:26;4.50;;;2.85;;
14686;SDS011;7431;49.440;11.084;2024-03-22T11:22:53;5.57;;;4.28;;
14686;SDS011;7431;49.440;11.084;2024-03-22T11:25:19;4.90;;;3.80;;
14686;SDS011;7431;49.440;11.084;2024-03-22T11:27:46;5.55;;;3.92;;
14686;SDS011;7431;49.440;11.084;2024-03-22T11:30:12;7.15;;;4.95;;
14686;SDS011;7431;49.440;11.084;2024-03-22T11:32:41;6.93;;;4.72;;
14686;SDS011;7431;49.440;11.084;2024-03-22T11:35:09;6.22;;;4.30;;
14686;SDS011;7431;49.440;11.084;2024-03-22T11:37:36;7.43;;;4.80;;
14686;SDS011;7431;49.440;11.084;2024-03-22T11:40:02;7.22;;;4.18;;
14686;SDS011;7431;49.440;11.084;2024-03-22T11:42:30;7.00;;;4.05;;
14686;SDS011;7431;49.440;11.084;2024-03-22T11:44:57;4.70;;;3.70;;
14686;SDS011;7431;49.440;11.084;2024-03-22T11:47:23;6.20;;;4.20;;
14686;SDS011;7431;49.440;11.084;2024-03-22T11:49:50;5.53;;;4.38;;
14686;SDS011;7431;49.440;11.084;2024-03-22T13:54:59;4.68;;;2.92;;
14686;SDS011;7431;49.440;11.084;2024-03-22T13:57:26;7.00;;;4.63;;
14686;SDS011;7431;49.440;11.084;2024-03-22T13:59:55;4.90;;;3.78;;
14686;SDS011;7431;49.440;11.084;2024-03-22T14:02:21;4.25;;;3.50;;
14686;SDS011;7431;49.440;11.084;2024-03-22T14:04:47;4.20;;;3.47;;
14686;SDS011;7431;49.440;11.084;2024-03-22T14:07:19;3.20;;;2.90;;
14686;SDS011;7431;49.440;11.084;2024-03-22T14:09:45;4.18;;;3.38;;
14686;SDS011;7431;49.440;11.084;2024-03-22T14:12:11;3.65;;;3.10;;
14686;SDS011;7431;49.440;11.084;2024-03-22T14:14:37;3.40;;;3.10;;
14686;SDS011;7431;49.440;11.084;2024-03-22T14:17:03;7.93;;;3.70;;
14686;SDS011;7431;49.440;11.084;2024-03-22T14:19:29;4.22;;;2.90;;
14686;SDS011;7431;49.440;11.084;2024-03-22T14:21:55;4.25;;;3.38;;
14686;SDS011;7431;49.440;11.084;2024-03-22T14:24:21;4.60;;;3.20;;
14686;SDS011;7431;49.440;11.084;2024-03-22T14:26:47;5.20;;;3.83;;
14686;SDS011;7431;49.440;11.084;2024-03-22T14:29:13;5.95;;;3.88;;
14686;SDS011;7431;49.440;11.084;2024-03-22T14:31:39;6.53;;;4.30;;
14686;SDS011;7431;49.440;11.084;2024-03-22T14:34:07;5.97;;;3.60;;
14686;SDS011;7431;49.440;11.084;2024-03-22T14:36:33;4.53;;;3.60;;
14686;SDS011;7431;49.440;11.084;2024-03-22T14:38:59;5.03;;;3.90;;
14686;SDS011;7431;49.440;11.084;2024-03-22T14:41:27;3.15;;;2.80;;
14686;SDS011;7431;49.440;11.084;2024-03-22T14:43:52;4.15;;;2.80;;
14686;SDS011;7431;49.440;11.084;2024-03-22T14:46:19;4.40;;;3.17;;
14686;SDS011;7431;49.440;11.084;2024-03-22T14:48:49;4.18;;;3.13;;
14686;SDS011;7431;49.440;11.084;2024-03-22T14:51:15;5.75;;;3.90;;
14686;SDS011;7431;49.440;11.084;2024-03-22T14:53:41;3.95;;;2.83;;
14686;SDS011;7431;49.440;11.084;2024-03-22T14:56:07;3.30;;;2.95;;
14686;SDS011;7431;49.440;11.084;2024-03-22T14:58:33;3.17;;;2.65;;
14686;SDS011;7431;49.440;11.084;2024-03-22T15:01:00;3.13;;;2.35;;
14686;SDS011;7431;49.440;11.084;2024-03-22T15:03:26;3.03;;;2.53;;
14686;SDS011;7431;49.440;11.084;2024-03-22T15:05:53;3.17;;;2.85;;
14686;SDS011;7431;49.440;11.084;2024-03-22T15:08:19;5.07;;;3.67;;
14686;SDS011;7431;49.440;11.084;2024-03-22T15:10:45;4.57;;;3.70;;
14686;SDS011;7431;49.440;11.084;2024-03-22T15:13:12;4.68;;;2.90;;
14686;SDS011;7431;49.440;11.084;2024-03-22T15:15:38;4.05;;;3.40;;
14686;SDS011;7431;49.440;11.084;2024-03-22T15:18:04;6.80;;;3.50;;
14686;SDS011;7431;49.440;11.084;2024-03-22T15:20:30;4.47;;;3.45;;
14686;SDS011;7431;49.440;11.084;2024-03-22T15:22:57;6.75;;;4.20;;
14686;SDS011;7431;49.440;11.084;2024-03-22T15:25:23;5.43;;;3.22;;
14686;SDS011;7431;49.440;11.084;2024-03-22T15:27:50;3.67;;;3.03;;
14686;SDS011;7431;49.440;11.084;2024-03-22T15:30:16;3.20;;;2.78;;
14686;SDS011;7431;49.440;11.084;2024-03-22T15:32:43;3.63;;;3.13;;
14686;SDS011;7431;49.440;11.084;2024-03-22T15:35:09;4.05;;;2.88;;
14686;SDS011;7431;49.440;11.084;2024-03-22T15:37:37;3.40;;;3.10;;
14686;SDS011;7431;49.440;11.084;2024-03-22T15:40:04;5.53;;;3.30;;
14686;SDS011;7431;49.440;11.084;2024-03-22T15:42:30;4.55;;;3.17;;
14686;SDS011;7431;49.440;11.084;2024-03-22T15:44:56;6.68;;;2.90;;
14686;SDS011;7431;49.440;11.084;2024-03-22T15:47:27;6.07;;;2.67;;
14686;SDS011;7431;49.440;11.084;2024-03-22T15:49:53;5.15;;;3.00;;
14686;SDS011;7431;49.440;11.084;2024-03-22T15:52:19;4.53;;;3.22;;
14686;SDS011;7431;49.440;11.084;2024-03-22T15:54:45;3.03;;;2.55;;
14686;SDS011;7431;49.440;11.084;2024-03-22T15:57:11;2.55;;;2.35;;
14686;SDS011;7431;49.440;11.084;2024-03-22T15:59:37;2.05;;;1.88;;
14686;SDS011;7431;49.440;11.084;2024-03-22T16:02:02;3.00;;;2.05;;
14686;SDS011;7431;49.440;11.084;2024-03-22T16:04:29;2.00;;;1.80;;
14686;SDS011;7431;49.440;11.084;2024-03-22T16:06:55;2.72;;;2.00;;
14686;SDS011;7431;49.440;11.084;2024-03-22T16:09:21;3.00;;;2.17;;
14686;SDS011;7431;49.440;11.084;2024-03-22T16:11:46;4.88;;;2.90;;
14686;SDS011;7431;49.440;11.084;2024-03-22T16:14:12;2.33;;;2.00;;
14686;SDS011;7431;49.440;11.084;2024-03-22T16:16:38;5.00;;;2.35;;
14686;SDS011;7431;49.440;11.084;2024-03-22T16:19:03;2.25;;;1.92;;
14686;SDS011;7431;49.440;11.084;2024-03-22T16:21:29;3.10;;;2.20;;
14686;SDS011;7431;49.440;11.084;2024-03-22T16:23:54;2.63;;;2.13;;
14686;SDS011;7431;49.440;11.084;2024-03-22T16:26:20;2.75;;;2.35;;
14686;SDS011;7431;49.440;11.084;2024-03-22T16:28:46;3.70;;;2.28;;
14686;SDS011;7431;49.440;11.084;2024-03-22T16:31:11;3.00;;;2.40;;
14686;SDS011;7431;49.440;11.084;2024-03-22T16:33:37;2.65;;;2.03;;
14686;SDS011;7431;49.440;11.084;2024-03-22T16:36:02;3.28;;;2.42;;
14686;SDS011;7431;49.440;11.084;2024-03-22T16:38:28;3.75;;;3.03;;